sensor_id;sensor_type;location;lat;lon;timestamp;pressure;altitude;pressure_sealevel;temperature;humidity
27705;BME280;15109;50.992;6.918;2022-11-13T00:00:39;102144.19;;;8.07;100.00
27705;BME280;15109;50.992;6.918;2022-11-13T00:04:20;102140.88;;;8.03;100.00
27705;BME280;15109;50.992;6.918;2022-11-13T00:07:59;102146.50;;;8.02;100.00
27705;BME280;15109;50.992;6.918;2022-11-13T00:11:39;102139.50;;;8.09;100.00
27705;BME280;15109;50.992;6.918;2022-11-13T00:15:20;102136.19;;;8.05;100.00
27705;BME280;15109;50.992;6.918;2022-11-13T00:19:01;102147.34;;;8.02;100.00
27705;BME280;15109;50.992;6.918;2022-11-13T00:22:40;102144.28;;;7.96;100.00
27705;BME280;15109;50.992;6.918;2022-11-13T00:26:26;102144.56;;;7.93;100.00
27705;BME280;15109;50.992;6.918;2022-11-13T00:30:07;102140.25;;;7.90;100.00
27705;BME280;15109;50.992;6.918;2022-11-13T00:33:49;102128.88;;;8.06;100.00
27705;BME280;15109;50.992;6.918;2022-11-13T00:37:29;102133.59;;;8.04;100.00
27705;BME280;15109;50.992;6.918;2022-11-13T00:41:14;102120.66;;;7.96;100.00
27705;BME280;15109;50.992;6.918;2022-11-13T00:44:54;102119.78;;;7.96;100.00
27705;BME280;15109;50.992;6.918;2022-11-13T00:48:35;102112.75;;;7.93;100.00
27705;BME280;15109;50.992;6.918;2022-11-13T00:52:15;102104.84;;;7.90;100.00
27705;BME280;15109;50.992;6.918;2022-11-13T00:55:56;102100.81;;;7.85;100.00
27705;BME280;15109;50.992;6.918;2022-11-13T00:59:36;102110.09;;;7.82;100.00
27705;BME280;15109;50.992;6.918;2022-11-13T01:03:19;102101.34;;;7.79;100.00
27705;BME280;15109;50.992;6.918;2022-11-13T01:07:00;102093.69;;;7.72;100.00
27705;BME280;15109;50.992;6.918;2022-11-13T01:10:46;102104.47;;;7.74;100.00
27705;BME280;15109;50.992;6.918;2022-11-13T01:14:26;102086.69;;;7.70;100.00
27705;BME280;15109;50.992;6.918;2022-11-13T01:18:15;102099.97;;;7.63;100.00
27705;BME280;15109;50.992;6.918;2022-11-13T01:21:54;102096.25;;;7.64;100.00
27705;BME280;15109;50.992;6.918;2022-11-13T01:25:34;102088.47;;;7.60;100.00
27705;BME280;15109;50.992;6.918;2022-11-13T01:29:17;102099.38;;;7.60;100.00
27705;BME280;15109;50.992;6.918;2022-11-13T01:32:57;102093.50;;;7.55;100.00
27705;BME280;15109;50.992;6.918;2022-11-13T01:36:37;102085.09;;;7.47;100.00
27705;BME280;15109;50.992;6.918;2022-11-13T01:40:19;102090.81;;;7.44;100.00
27705;BME280;15109;50.992;6.918;2022-11-13T01:44:00;102076.75;;;7.39;100.00
27705;BME280;15109;50.992;6.918;2022-11-13T01:47:42;102077.88;;;7.36;100.00
27705;BME280;15109;50.992;6.918;2022-11-13T01:51:36;102081.00;;;7.32;100.00
27705;BME280;15109;50.992;6.918;2022-11-13T01:55:19;102069.75;;;7.25;100.00
27705;BME280;15109;50.992;6.918;2022-11-13T01:59:42;102066.44;;;7.21;100.00
27705;BME280;15109;50.992;6.918;2022-11-13T02:03:14;102057.69;;;7.18;100.00
27705;BME280;15109;50.992;6.918;2022-11-13T02:07:02;102054.38;;;7.14;100.00
27705;BME280;15109;50.992;6.918;2022-11-13T02:10:42;102051.66;;;7.14;100.00
27705;BME280;15109;50.992;6.918;2022-11-13T02:14:29;102049.34;;;7.10;100.00
27705;BME280;15109;50.992;6.918;2022-11-13T02:18:10;102046.63;;;7.10;100.00
27705;BME280;15109;50.992;6.918;2022-11-13T02:25:48;102033.97;;;7.20;100.00
27705;BME280;15109;50.992;6.918;2022-11-13T02:29:29;102025.19;;;7.16;100.00
27705;BME280;15109;50.992;6.918;2022-11-13T02:33:27;102021.63;;;7.16;100.00
27705;BME280;15109;50.992;6.918;2022-11-13T02:37:08;102019.31;;;7.11;100.00
27705;BME280;15109;50.992;6.918;2022-11-13T02:40:49;102015.44;;;7.14;100.00
27705;BME280;15109;50.992;6.918;2022-11-13T02:44:30;102013.00;;;7.11;100.00
27705;BME280;15109;50.992;6.918;2022-11-13T02:48:09;102018.69;;;7.08;100.00
27705;BME280;15109;50.992;6.918;2022-11-13T02:51:49;102018.47;;;7.00;100.00
27705;BME280;15109;50.992;6.918;2022-11-13T02:55:29;102017.88;;;6.96;100.00
27705;BME280;15109;50.992;6.918;2022-11-13T02:59:09;102014.09;;;6.88;100.00
27705;BME280;15109;50.992;6.918;2022-11-13T03:02:49;102004.59;;;6.82;100.00
27705;BME280;15109;50.992;6.918;2022-11-13T03:06:30;101997.06;;;6.86;100.00
27705;BME280;15109;50.992;6.918;2022-11-13T03:10:12;102002.03;;;6.80;100.00
27705;BME280;15109;50.992;6.918;2022-11-13T03:13:52;102000.09;;;6.71;100.00
27705;BME280;15109;50.992;6.918;2022-11-13T03:17:36;102000.88;;;6.62;100.00
27705;BME280;15109;50.992;6.918;2022-11-13T03:21:16;101995.72;;;6.59;100.00
27705;BME280;15109;50.992;6.918;2022-11-13T03:24:57;101998.34;;;6.50;100.00
27705;BME280;15109;50.992;6.918;2022-11-13T03:28:43;101999.59;;;6.46;100.00
27705;BME280;15109;50.992;6.918;2022-11-13T03:32:26;102000.97;;;6.40;100.00
27705;BME280;15109;50.992;6.918;2022-11-13T03:36:07;101999.50;;;6.36;100.00
27705;BME280;15109;50.992;6.918;2022-11-13T03:39:48;102000.63;;;6.33;100.00
27705;BME280;15109;50.992;6.918;2022-11-13T03:43:29;101996.88;;;6.34;100.00
27705;BME280;15109;50.992;6.918;2022-11-13T03:47:09;102004.69;;;6.28;100.00
27705;BME280;15109;50.992;6.918;2022-11-13T03:50:51;101995.34;;;6.21;100.00
27705;BME280;15109;50.992;6.918;2022-11-13T03:54:31;101992.16;;;6.16;100.00
27705;BME280;15109;50.992;6.918;2022-11-13T03:58:12;101986.13;;;6.12;100.00
27705;BME280;15109;50.992;6.918;2022-11-13T04:01:56;101989.94;;;6.10;100.00
27705;BME280;15109;50.992;6.918;2022-11-13T04:05:36;101987.47;;;6.07;100.00
27705;BME280;15109;50.992;6.918;2022-11-13T04:09:18;101982.03;;;6.07;100.00
27705;BME280;15109;50.992;6.918;2022-11-13T04:12:58;101977.72;;;6.04;100.00
27705;BME280;15109;50.992;6.918;2022-11-13T04:16:37;101979.44;;;6.05;100.00
27705;BME280;15109;50.992;6.918;2022-11-13T04:20:20;101971.31;;;6.05;100.00
27705;BME280;15109;50.992;6.918;2022-11-13T04:24:01;101969.34;;;6.07;100.00
27705;BME280;15109;50.992;6.918;2022-11-13T04:27:42;101965.63;;;6.08;100.00
27705;BME280;15109;50.992;6.918;2022-11-13T04:31:21;101957.00;;;6.03;100.00
27705;BME280;15109;50.992;6.918;2022-11-13T04:35:01;101954.53;;;6.00;100.00
27705;BME280;15109;50.992;6.918;2022-11-13T04:38:42;101948.13;;;6.01;100.00
27705;BME280;15109;50.992;6.918;2022-11-13T04:42:21;101950.72;;;6.03;100.00
27705;BME280;15109;50.992;6.918;2022-11-13T04:46:21;101949.72;;;6.04;100.00
27705;BME280;15109;50.992;6.918;2022-11-13T04:50:01;101946.16;;;6.03;100.00
27705;BME280;15109;50.992;6.918;2022-11-13T04:53:46;101927.38;;;6.00;100.00
27705;BME280;15109;50.992;6.918;2022-11-13T04:57:28;101924.06;;;5.97;100.00
27705;BME280;15109;50.992;6.918;2022-11-13T05:01:08;101917.91;;;5.95;100.00
27705;BME280;15109;50.992;6.918;2022-11-13T05:04:48;101926.44;;;5.90;100.00
27705;BME280;15109;50.992;6.918;2022-11-13T05:08:29;101927.41;;;5.89;100.00
27705;BME280;15109;50.992;6.918;2022-11-13T05:12:09;101919.28;;;5.89;100.00
27705;BME280;15109;50.992;6.918;2022-11-13T05:15:49;101922.59;;;5.92;100.00
27705;BME280;15109;50.992;6.918;2022-11-13T05:19:32;101914.81;;;5.88;100.00
27705;BME280;15109;50.992;6.918;2022-11-13T05:23:12;101916.31;;;5.81;100.00
27705;BME280;15109;50.992;6.918;2022-11-13T05:26:53;101914.84;;;5.77;100.00
27705;BME280;15109;50.992;6.918;2022-11-13T05:30:33;101915.81;;;5.76;100.00
27705;BME280;15109;50.992;6.918;2022-11-13T05:34:14;101917.06;;;5.72;100.00
27705;BME280;15109;50.992;6.918;2022-11-13T05:37:53;101911.53;;;5.73;100.00
27705;BME280;15109;50.992;6.918;2022-11-13T05:41:34;101910.28;;;5.77;100.00
27705;BME280;15109;50.992;6.918;2022-11-13T05:45:15;101905.81;;;5.76;100.00
27705;BME280;15109;50.992;6.918;2022-11-13T05:48:57;101903.50;;;5.72;100.00
27705;BME280;15109;50.992;6.918;2022-11-13T05:52:40;101897.56;;;5.67;100.00
27705;BME280;15109;50.992;6.918;2022-11-13T05:56:31;101891.81;;;5.60;100.00
27705;BME280;15109;50.992;6.918;2022-11-13T06:00:11;101886.88;;;5.54;100.00
27705;BME280;15109;50.992;6.918;2022-11-13T06:03:54;101881.72;;;5.51;100.00
27705;BME280;15109;50.992;6.918;2022-11-13T06:07:35;101877.38;;;5.48;100.00
27705;BME280;15109;50.992;6.918;2022-11-13T06:11:18;101872.81;;;5.49;100.00
27705;BME280;15109;50.992;6.918;2022-11-13T06:15:02;101871.94;;;5.48;100.00
27705;BME280;15109;50.992;6.918;2022-11-13T06:18:43;101852.50;;;5.43;100.00
27705;BME280;15109;50.992;6.918;2022-11-13T06:22:24;101854.59;;;5.40;100.00
27705;BME280;15109;50.992;6.918;2022-11-13T06:26:08;101844.09;;;5.35;100.00
27705;BME280;15109;50.992;6.918;2022-11-13T06:29:48;101847.69;;;5.36;100.00
27705;BME280;15109;50.992;6.918;2022-11-13T06:33:30;101841.41;;;5.35;100.00
27705;BME280;15109;50.992;6.918;2022-11-13T06:37:11;101839.06;;;5.31;100.00
27705;BME280;15109;50.992;6.918;2022-11-13T06:40:56;101840.56;;;5.35;100.00
27705;BME280;15109;50.992;6.918;2022-11-13T06:44:35;101844.00;;;5.37;100.00
27705;BME280;15109;50.992;6.918;2022-11-13T06:48:17;101836.13;;;5.34;100.00
27705;BME280;15109;50.992;6.918;2022-11-13T06:51:57;101834.88;;;5.27;100.00
27705;BME280;15109;50.992;6.918;2022-11-13T06:55:43;101840.19;;;5.28;100.00
27705;BME280;15109;50.992;6.918;2022-11-13T06:59:23;101838.72;;;5.24;100.00
27705;BME280;15109;50.992;6.918;2022-11-13T07:03:02;101845.22;;;5.33;100.00
27705;BME280;15109;50.992;6.918;2022-11-13T07:06:42;101841.06;;;5.29;100.00
27705;BME280;15109;50.992;6.918;2022-11-13T07:10:21;101844.03;;;5.26;100.00
27705;BME280;15109;50.992;6.918;2022-11-13T07:14:08;101846.72;;;5.26;100.00
27705;BME280;15109;50.992;6.918;2022-11-13T07:17:51;101838.44;;;5.27;100.00
27705;BME280;15109;50.992;6.918;2022-11-13T07:21:35;101830.84;;;5.21;100.00
27705;BME280;15109;50.992;6.918;2022-11-13T07:25:16;101843.78;;;5.18;100.00
27705;BME280;15109;50.992;6.918;2022-11-13T07:28:56;101840.22;;;5.17;100.00
27705;BME280;15109;50.992;6.918;2022-11-13T07:32:37;101840.22;;;5.17;100.00
27705;BME280;15109;50.992;6.918;2022-11-13T07:36:18;101823.81;;;5.19;100.00
27705;BME280;15109;50.992;6.918;2022-11-13T07:39:58;101827.38;;;5.19;100.00
27705;BME280;15109;50.992;6.918;2022-11-13T07:43:38;101827.88;;;5.24;100.00
27705;BME280;15109;50.992;6.918;2022-11-13T07:47:18;101825.66;;;5.29;100.00
27705;BME280;15109;50.992;6.918;2022-11-13T07:50:59;101824.16;;;5.36;100.00
27705;BME280;15109;50.992;6.918;2022-11-13T07:54:39;101822.41;;;5.46;100.00
27705;BME280;15109;50.992;6.918;2022-11-13T07:58:23;101815.47;;;5.54;100.00
27705;BME280;15109;50.992;6.918;2022-11-13T08:02:04;101824.44;;;5.65;100.00
27705;BME280;15109;50.992;6.918;2022-11-13T08:05:43;101820.09;;;5.74;100.00
27705;BME280;15109;50.992;6.918;2022-11-13T08:09:24;101820.56;;;5.79;100.00
27705;BME280;15109;50.992;6.918;2022-11-13T08:13:06;101819.84;;;5.88;100.00
27705;BME280;15109;50.992;6.918;2022-11-13T08:16:46;101815.34;;;5.98;100.00
27705;BME280;15109;50.992;6.918;2022-11-13T08:20:28;101809.00;;;6.09;100.00
27705;BME280;15109;50.992;6.918;2022-11-13T08:24:09;101804.63;;;6.17;100.00
27705;BME280;15109;50.992;6.918;2022-11-13T08:27:52;101800.41;;;6.24;100.00
27705;BME280;15109;50.992;6.918;2022-11-13T08:31:32;101797.63;;;6.35;100.00
27705;BME280;15109;50.992;6.918;2022-11-13T08:35:12;101795.09;;;6.44;100.00
27705;BME280;15109;50.992;6.918;2022-11-13T08:38:53;101786.00;;;6.54;100.00
27705;BME280;15109;50.992;6.918;2022-11-13T08:42:34;101775.91;;;6.66;100.00
27705;BME280;15109;50.992;6.918;2022-11-13T08:46:15;101774.13;;;6.76;100.00
27705;BME280;15109;50.992;6.918;2022-11-13T08:49:56;101773.13;;;6.87;100.00
27705;BME280;15109;50.992;6.918;2022-11-13T08:53:36;101774.03;;;6.97;100.00
27705;BME280;15109;50.992;6.918;2022-11-13T08:57:19;101774.50;;;7.02;100.00
27705;BME280;15109;50.992;6.918;2022-11-13T09:01:00;101759.91;;;7.12;100.00
27705;BME280;15109;50.992;6.918;2022-11-13T09:04:41;101758.22;;;7.21;100.00
27705;BME280;15109;50.992;6.918;2022-11-13T09:08:21;101750.81;;;7.33;100.00
27705;BME280;15109;50.992;6.918;2022-11-13T09:12:02;101756.41;;;7.41;100.00
27705;BME280;15109;50.992;6.918;2022-11-13T09:15:42;101749.25;;;7.49;100.00
27705;BME280;15109;50.992;6.918;2022-11-13T09:19:22;101756.28;;;7.61;100.00
27705;BME280;15109;50.992;6.918;2022-11-13T09:23:05;101760.59;;;7.73;100.00
27705;BME280;15109;50.992;6.918;2022-11-13T09:26:45;101748.41;;;7.78;100.00
27705;BME280;15109;50.992;6.918;2022-11-13T09:30:31;101751.88;;;7.89;100.00
27705;BME280;15109;50.992;6.918;2022-11-13T09:34:12;101754.41;;;8.00;100.00
27705;BME280;15109;50.992;6.918;2022-11-13T09:37:54;101761.72;;;8.09;100.00
27705;BME280;15109;50.992;6.918;2022-11-13T09:41:51;101754.97;;;8.33;100.00
27705;BME280;15109;50.992;6.918;2022-11-13T09:45:40;101753.06;;;8.43;100.00
27705;BME280;15109;50.992;6.918;2022-11-13T09:49:27;101752.34;;;8.50;100.00
27705;BME280;15109;50.992;6.918;2022-11-13T09:53:11;101750.44;;;8.60;100.00
27705;BME280;15109;50.992;6.918;2022-11-13T10:00:43;101756.41;;;8.74;100.00
27705;BME280;15109;50.992;6.918;2022-11-13T10:08:59;101752.88;;;9.00;100.00
27705;BME280;15109;50.992;6.918;2022-11-13T10:12:41;101739.88;;;9.12;100.00
27705;BME280;15109;50.992;6.918;2022-11-13T10:16:35;101741.81;;;9.20;100.00
27705;BME280;15109;50.992;6.918;2022-11-13T10:21:04;101733.53;;;9.39;100.00
27705;BME280;15109;50.992;6.918;2022-11-13T10:24:27;101739.00;;;9.56;100.00
27705;BME280;15109;50.992;6.918;2022-11-13T10:28:20;101727.16;;;9.66;100.00
27705;BME280;15109;50.992;6.918;2022-11-13T10:36:20;101711.34;;;9.95;100.00
27705;BME280;15109;50.992;6.918;2022-11-13T10:40:09;101704.50;;;9.91;100.00
27705;BME280;15109;50.992;6.918;2022-11-13T10:43:53;101702.63;;;9.91;100.00
27705;BME280;15109;50.992;6.918;2022-11-13T10:47:46;101697.03;;;10.01;100.00
27705;BME280;15109;50.992;6.918;2022-11-13T10:51:31;101688.59;;;10.12;100.00
27705;BME280;15109;50.992;6.918;2022-11-13T10:55:20;101673.31;;;10.19;100.00
27705;BME280;15109;50.992;6.918;2022-11-13T10:59:03;101667.59;;;10.30;100.00
27705;BME280;15109;50.992;6.918;2022-11-13T11:02:48;101668.69;;;10.45;100.00
27705;BME280;15109;50.992;6.918;2022-11-13T11:06:33;101662.38;;;10.53;100.00
27705;BME280;15109;50.992;6.918;2022-11-13T11:10:33;101655.63;;;10.65;100.00
27705;BME280;15109;50.992;6.918;2022-11-13T11:14:34;101646.78;;;10.79;100.00
27705;BME280;15109;50.992;6.918;2022-11-13T11:18:37;101635.03;;;10.87;100.00
27705;BME280;15109;50.992;6.918;2022-11-13T11:22:23;101638.16;;;11.00;100.00
27705;BME280;15109;50.992;6.918;2022-11-13T11:26:15;101637.97;;;11.10;100.00
27705;BME280;15109;50.992;6.918;2022-11-13T11:30:03;101629.28;;;11.22;100.00
27705;BME280;15109;50.992;6.918;2022-11-13T11:33:54;101620.22;;;11.30;100.00
27705;BME280;15109;50.992;6.918;2022-11-13T11:37:52;101615.63;;;11.47;100.00
27705;BME280;15109;50.992;6.918;2022-11-13T11:41:45;101600.38;;;11.52;100.00
27705;BME280;15109;50.992;6.918;2022-11-13T11:45:32;101592.00;;;11.54;100.00
27705;BME280;15109;50.992;6.918;2022-11-13T11:49:13;101588.22;;;11.63;100.00
27705;BME280;15109;50.992;6.918;2022-11-13T11:53:15;101582.06;;;11.69;100.00
27705;BME280;15109;50.992;6.918;2022-11-13T12:09:37;101572.25;;;12.07;95.05
27705;BME280;15109;50.992;6.918;2022-11-13T12:13:28;101560.75;;;12.11;93.96
27705;BME280;15109;50.992;6.918;2022-11-13T12:25:32;101545.59;;;12.32;92.87
27705;BME280;15109;50.992;6.918;2022-11-13T12:53:04;101488.06;;;12.54;88.67
27705;BME280;15109;50.992;6.918;2022-11-13T12:56:48;101477.75;;;12.56;87.71
27705;BME280;15109;50.992;6.918;2022-11-13T13:00:29;101475.19;;;12.55;86.45
27705;BME280;15109;50.992;6.918;2022-11-13T13:04:39;101471.53;;;12.62;85.58
27705;BME280;15109;50.992;6.918;2022-11-13T13:08:46;101466.91;;;12.63;84.60
27705;BME280;15109;50.992;6.918;2022-11-13T13:12:48;101460.50;;;12.70;84.84
27705;BME280;15109;50.992;6.918;2022-11-13T13:16:33;101455.97;;;12.78;89.52
27705;BME280;15109;50.992;6.918;2022-11-13T13:24:09;101430.72;;;12.82;84.73
27705;BME280;15109;50.992;6.918;2022-11-13T13:36:20;101420.75;;;12.89;86.68
27705;BME280;15109;50.992;6.918;2022-11-13T13:44:23;101425.94;;;12.84;85.33
27705;BME280;15109;50.992;6.918;2022-11-13T13:48:07;101414.16;;;12.98;85.02
27705;BME280;15109;50.992;6.918;2022-11-13T13:51:52;101418.88;;;13.04;84.27
27705;BME280;15109;50.992;6.918;2022-11-13T13:55:36;101422.47;;;13.05;84.99
27705;BME280;15109;50.992;6.918;2022-11-13T13:59:19;101409.31;;;13.00;86.46
27705;BME280;15109;50.992;6.918;2022-11-13T14:03:02;101412.81;;;12.94;87.18
27705;BME280;15109;50.992;6.918;2022-11-13T14:06:57;101409.22;;;12.94;86.96
27705;BME280;15109;50.992;6.918;2022-11-13T14:10:37;101404.38;;;12.96;87.46
27705;BME280;15109;50.992;6.918;2022-11-13T14:14:23;101396.63;;;12.99;87.41
27705;BME280;15109;50.992;6.918;2022-11-13T14:18:12;101398.88;;;12.96;87.87
27705;BME280;15109;50.992;6.918;2022-11-13T14:21:59;101389.22;;;12.85;88.63
27705;BME280;15109;50.992;6.918;2022-11-13T14:25:43;101381.41;;;12.74;88.91
27705;BME280;15109;50.992;6.918;2022-11-13T14:29:38;101371.66;;;12.71;88.71
27705;BME280;15109;50.992;6.918;2022-11-13T14:33:29;101381.22;;;12.76;89.22
27705;BME280;15109;50.992;6.918;2022-11-13T14:37:30;101362.81;;;12.99;87.21
27705;BME280;15109;50.992;6.918;2022-11-13T14:41:37;101351.50;;;13.16;86.39
27705;BME280;15109;50.992;6.918;2022-11-13T14:45:23;101350.06;;;13.06;88.46
27705;BME280;15109;50.992;6.918;2022-11-13T14:49:03;101341.44;;;12.94;89.95
27705;BME280;15109;50.992;6.918;2022-11-13T14:52:43;101346.59;;;12.74;94.08
27705;BME280;15109;50.992;6.918;2022-11-13T14:56:37;101341.81;;;12.54;96.79
27705;BME280;15109;50.992;6.918;2022-11-13T15:00:26;101338.34;;;12.37;99.16
27705;BME280;15109;50.992;6.918;2022-11-13T15:04:07;101336.75;;;12.20;100.00
27705;BME280;15109;50.992;6.918;2022-11-13T15:07:48;101339.47;;;11.97;100.00
27705;BME280;15109;50.992;6.918;2022-11-13T15:11:29;101341.31;;;11.74;100.00
27705;BME280;15109;50.992;6.918;2022-11-13T15:15:16;101345.16;;;11.49;100.00
27705;BME280;15109;50.992;6.918;2022-11-13T15:19:00;101349.19;;;11.30;100.00
27705;BME280;15109;50.992;6.918;2022-11-13T15:22:42;101346.47;;;11.14;100.00
27705;BME280;15109;50.992;6.918;2022-11-13T15:26:23;101336.59;;;10.97;100.00
27705;BME280;15109;50.992;6.918;2022-11-13T15:30:03;101349.81;;;10.77;100.00
27705;BME280;15109;50.992;6.918;2022-11-13T15:33:43;101346.91;;;10.62;100.00
27705;BME280;15109;50.992;6.918;2022-11-13T15:37:23;101349.81;;;10.44;100.00
27705;BME280;15109;50.992;6.918;2022-11-13T15:41:22;101344.34;;;10.28;100.00
27705;BME280;15109;50.992;6.918;2022-11-13T15:45:04;101348.75;;;10.13;100.00
27705;BME280;15109;50.992;6.918;2022-11-13T15:48:54;101342.06;;;9.99;100.00
27705;BME280;15109;50.992;6.918;2022-11-13T15:52:38;101345.94;;;9.89;100.00
27705;BME280;15109;50.992;6.918;2022-11-13T15:56:19;101329.88;;;9.78;100.00
27705;BME280;15109;50.992;6.918;2022-11-13T15:59:59;101326.78;;;9.65;100.00
27705;BME280;15109;50.992;6.918;2022-11-13T16:03:39;101322.63;;;9.52;100.00
27705;BME280;15109;50.992;6.918;2022-11-13T16:07:26;101322.91;;;9.41;100.00
27705;BME280;15109;50.992;6.918;2022-11-13T16:11:17;101325.63;;;9.33;100.00
27705;BME280;15109;50.992;6.918;2022-11-13T16:14:58;101328.47;;;9.24;100.00
27705;BME280;15109;50.992;6.918;2022-11-13T16:18:39;101323.16;;;9.14;100.00
27705;BME280;15109;50.992;6.918;2022-11-13T16:22:21;101321.41;;;9.05;100.00
27705;BME280;15109;50.992;6.918;2022-11-13T16:26:02;101318.63;;;8.97;100.00
27705;BME280;15109;50.992;6.918;2022-11-13T16:29:43;101309.53;;;8.88;100.00
27705;BME280;15109;50.992;6.918;2022-11-13T16:33:22;101302.31;;;8.79;100.00
27705;BME280;15109;50.992;6.918;2022-11-13T16:37:03;101294.94;;;8.72;100.00
27705;BME280;15109;50.992;6.918;2022-11-13T16:40:46;101290.13;;;8.65;100.00
27705;BME280;15109;50.992;6.918;2022-11-13T16:44:26;101293.66;;;8.58;100.00
27705;BME280;15109;50.992;6.918;2022-11-13T16:48:11;101297.03;;;8.52;100.00
27705;BME280;15109;50.992;6.918;2022-11-13T16:51:51;101283.19;;;8.45;100.00
27705;BME280;15109;50.992;6.918;2022-11-13T16:55:34;101269.34;;;8.39;100.00
27705;BME280;15109;50.992;6.918;2022-11-13T16:59:14;101265.53;;;8.32;100.00
27705;BME280;15109;50.992;6.918;2022-11-13T17:02:54;101256.94;;;8.27;100.00
27705;BME280;15109;50.992;6.918;2022-11-13T17:06:35;101259.44;;;8.20;100.00
27705;BME280;15109;50.992;6.918;2022-11-13T17:10:17;101260.94;;;8.14;100.00
27705;BME280;15109;50.992;6.918;2022-11-13T17:14:01;101265.28;;;8.07;100.00
27705;BME280;15109;50.992;6.918;2022-11-13T17:17:41;101258.63;;;8.02;100.00
27705;BME280;15109;50.992;6.918;2022-11-13T17:21:27;101256.38;;;7.97;100.00
27705;BME280;15109;50.992;6.918;2022-11-13T17:25:12;101252.41;;;7.92;100.00
27705;BME280;15109;50.992;6.918;2022-11-13T17:28:52;101247.28;;;7.89;100.00
27705;BME280;15109;50.992;6.918;2022-11-13T17:32:34;101250.28;;;7.86;100.00
27705;BME280;15109;50.992;6.918;2022-11-13T17:36:23;101249.22;;;7.79;100.00
27705;BME280;15109;50.992;6.918;2022-11-13T17:40:03;101245.97;;;7.75;100.00
27705;BME280;15109;50.992;6.918;2022-11-13T17:43:46;101244.69;;;7.69;100.00
27705;BME280;15109;50.992;6.918;2022-11-13T17:47:26;101238.19;;;7.62;100.00
27705;BME280;15109;50.992;6.918;2022-11-13T17:51:10;101237.78;;;7.57;100.00
27705;BME280;15109;50.992;6.918;2022-11-13T17:54:50;101231.09;;;7.52;100.00
27705;BME280;15109;50.992;6.918;2022-11-13T17:58:35;101232.41;;;7.48;100.00
27705;BME280;15109;50.992;6.918;2022-11-13T18:02:16;101237.31;;;7.44;100.00
27705;BME280;15109;50.992;6.918;2022-11-13T18:06:06;101238.94;;;7.37;100.00
27705;BME280;15109;50.992;6.918;2022-11-13T18:09:46;101236.81;;;7.31;100.00
27705;BME280;15109;50.992;6.918;2022-11-13T18:13:26;101238.13;;;7.27;100.00
27705;BME280;15109;50.992;6.918;2022-11-13T18:17:06;101238.59;;;7.22;100.00
27705;BME280;15109;50.992;6.918;2022-11-13T18:20:47;101239.19;;;7.16;100.00
27705;BME280;15109;50.992;6.918;2022-11-13T18:24:27;101240.81;;;7.09;100.00
27705;BME280;15109;50.992;6.918;2022-11-13T18:28:08;101239.72;;;7.02;100.00
27705;BME280;15109;50.992;6.918;2022-11-13T18:31:49;101233.56;;;7.00;100.00
27705;BME280;15109;50.992;6.918;2022-11-13T18:35:30;101240.44;;;6.95;100.00
27705;BME280;15109;50.992;6.918;2022-11-13T18:39:10;101240.06;;;6.90;100.00
27705;BME280;15109;50.992;6.918;2022-11-13T18:42:56;101235.50;;;6.90;100.00
27705;BME280;15109;50.992;6.918;2022-11-13T18:46:37;101238.66;;;6.86;100.00
27705;BME280;15109;50.992;6.918;2022-11-13T18:50:17;101233.22;;;6.86;100.00
27705;BME280;15109;50.992;6.918;2022-11-13T18:53:57;101240.97;;;6.80;100.00
27705;BME280;15109;50.992;6.918;2022-11-13T18:57:37;101233.25;;;6.76;100.00
27705;BME280;15109;50.992;6.918;2022-11-13T19:01:22;101236.88;;;6.67;100.00
27705;BME280;15109;50.992;6.918;2022-11-13T19:05:05;101235.47;;;6.63;100.00
27705;BME280;15109;50.992;6.918;2022-11-13T19:08:54;101229.59;;;6.58;100.00
27705;BME280;15109;50.992;6.918;2022-11-13T19:12:35;101219.19;;;6.53;100.00
27705;BME280;15109;50.992;6.918;2022-11-13T19:16:18;101220.34;;;6.51;100.00
27705;BME280;15109;50.992;6.918;2022-11-13T19:19:59;101208.94;;;6.47;100.00
27705;BME280;15109;50.992;6.918;2022-11-13T19:23:38;101197.66;;;6.42;100.00
27705;BME280;15109;50.992;6.918;2022-11-13T19:27:19;101189.94;;;6.37;100.00
27705;BME280;15109;50.992;6.918;2022-11-13T19:31:09;101203.66;;;6.36;100.00
27705;BME280;15109;50.992;6.918;2022-11-13T19:34:50;101197.53;;;6.34;100.00
27705;BME280;15109;50.992;6.918;2022-11-13T19:38:30;101189.41;;;6.34;100.00
27705;BME280;15109;50.992;6.918;2022-11-13T19:42:11;101191.53;;;6.30;100.00
27705;BME280;15109;50.992;6.918;2022-11-13T19:45:52;101180.81;;;6.29;100.00
27705;BME280;15109;50.992;6.918;2022-11-13T19:49:31;101171.66;;;6.30;100.00
27705;BME280;15109;50.992;6.918;2022-11-13T19:53:16;101168.25;;;6.28;100.00
27705;BME280;15109;50.992;6.918;2022-11-13T19:56:55;101170.97;;;6.28;100.00
27705;BME280;15109;50.992;6.918;2022-11-13T20:00:36;101165.84;;;6.25;100.00
27705;BME280;15109;50.992;6.918;2022-11-13T20:04:16;101169.41;;;6.25;100.00
27705;BME280;15109;50.992;6.918;2022-11-13T20:07:56;101170.41;;;6.24;100.00
27705;BME280;15109;50.992;6.918;2022-11-13T20:11:37;101166.69;;;6.25;100.00
27705;BME280;15109;50.992;6.918;2022-11-13T20:15:18;101155.56;;;6.19;100.00
27705;BME280;15109;50.992;6.918;2022-11-13T20:18:58;101156.72;;;6.16;100.00
27705;BME280;15109;50.992;6.918;2022-11-13T20:22:38;101154.13;;;6.15;100.00
27705;BME280;15109;50.992;6.918;2022-11-13T20:26:18;101156.13;;;6.13;100.00
27705;BME280;15109;50.992;6.918;2022-11-13T20:29:58;101151.44;;;6.15;100.00
27705;BME280;15109;50.992;6.918;2022-11-13T20:33:40;101149.28;;;6.09;100.00
27705;BME280;15109;50.992;6.918;2022-11-13T20:37:21;101154.47;;;6.02;100.00
27705;BME280;15109;50.992;6.918;2022-11-13T20:41:06;101154.78;;;5.99;100.00
27705;BME280;15109;50.992;6.918;2022-11-13T20:44:46;101146.22;;;5.94;100.00